RKJK/KUV METAR and TAF weather

Enter ICAO airport designator
Station Type Date Time Source
RKJK METAR 2022/01/27 23:56 UTC NOAA

RKJK 272356Z 36005KT 10SM FEW180 00/M08 A3030 RMK AO2A SLP266 T00011081 10001 21039 52008 $


Station Type Date Time Source
RKJK Decoded METAR 2022/01/27 23:56 UTC NOAA

Kunsan Ab, Korea, South (RKJK) 35-55N 126-37E 10M
Jan 27, 2022 - 06:56 PM EST / 2022.01.27 2356 UTC
Wind: from the N (360 degrees) at 6 MPH (5 KT):0
Visibility: 10 mile(s):0
Sky conditions: mostly clear
Temperature: 32.2 F (0.1 C)
Windchill: 26 F (-3 C):1
Dew Point: 17.4 F (-8.1 C)
Relative Humidity: 54%
Pressure (altimeter): 30.3 in. Hg (1026 hPa)
Pressure tendency: 0.02 inches (0.8 hPa) higher than three hours ago
ob: RKJK 272356Z 36005KT 10SM FEW180 00/M08 A3030 RMK AO2A SLP266 T00011081 10001 21039 52008
cycle: 0

Station Type Date Time Source
RKJK TAF 2022/01/28 00:12 UTC NOAA

TAF RKJK 280000Z 2800/2906 34012G18KT 9999 SCT180 QNH3023INS
BECMG 2812/2813 34008KT 9999 FEW030 SCT180 QNH3020INS
BECMG 2903/2904 34012G18KT 9999 FEW180 QNH3021INS TX07/2804Z TNM04/2821Z

Example: see airport list